Time;durP1;ratioP1;P1;durP2;ratioP2;P2;SDS_P1;SDS_P2;PMS_P1;PMS_P2;Temp;Humidity;BMP_temperature;BMP_pressure;BME280_temperature;BME280_humidity;BME280_pressure;Samples;Min_cycle;Max_cycle;Signal;HPM_P1;HPM_P2
2021/04/12 00:01:19;;;;;;;8.43;4.70;;;;;;;9.66;51.19;102046.22;143741;590;46016;-73
2021/04/12 00:04:15;;;;;;;9.40;4.35;;;;;;;9.66;50.57;102043.59;143734;591;48020;-72
2021/04/12 00:06:58;;;;;;;11.93;5.55;;;;;;;9.61;51.22;102042.78;143737;598;47010;-72
2021/04/12 00:09:50;;;;;;;12.35;6.25;;;;;;;9.57;50.87;102048.91;143737;577;46012;-73
2021/04/12 00:12:38;;;;;;;8.85;4.60;;;;;;;9.55;50.69;102042.78;143738;617;49012;-73
2021/04/12 00:15:26;;;;;;;8.38;4.05;;;;;;;9.52;51.06;102042.78;143734;562;48021;-72
2021/04/12 00:17:58;;;;;;;5.50;3.92;;;;;;;9.49;51.48;102039.28;143740;592;46010;-72
2021/04/12 00:20:44;;;;;;;5.10;3.50;;;;;;;9.49;50.99;102038.44;143735;564;46012;-72
2021/04/12 00:23:18;;;;;;;6.45;3.62;;;;;;;9.46;51.12;102039.31;143738;564;48012;-73
2021/04/12 00:26:04;;;;;;;13.30;9.95;;;;;;;9.44;51.43;102037.56;143736;636;48022;-75
2021/04/12 00:28:48;;;;;;;14.27;10.18;;;;;;;9.40;51.39;102033.19;143737;617;46011;-72
2021/04/12 00:31:43;;;;;;;10.60;5.95;;;;;;;9.41;50.97;102037.56;143740;617;46014;-75
2021/04/12 00:34:40;;;;;;;6.18;4.10;;;;;;;9.40;50.60;102031.44;143734;594;48012;-72
2021/04/12 00:37:30;;;;;;;6.47;3.78;;;;;;;9.38;51.38;102027.09;143737;594;47021;-72
2021/04/12 00:40:43;;;;;;;8.88;4.60;;;;;;;9.37;51.00;102020.09;143738;583;47010;-73
2021/04/12 00:43:36;;;;;;;10.35;4.90;;;;;;;9.33;50.93;102019.22;143737;572;46012;-72
2021/04/12 00:46:58;;;;;;;8.00;4.37;;;;;;;9.33;50.88;102016.59;143738;621;49012;-72
2021/04/12 00:49:57;;;;;;;7.18;4.22;;;;;;;9.30;50.82;102014.84;143733;593;48020;-72
2021/04/12 00:52:56;;;;;;;8.70;4.15;;;;;;;9.29;51.45;102005.28;143739;667;46010;-74
2021/04/12 00:55:36;;;;;;;;;;;;;;;9.29;50.22;102007.00;143740;975;46012;-73
2021/04/12 00:58:40;;;;;;;5.80;3.80;;;;;;;9.27;50.86;102008.75;143751;642;48011;-72
2021/04/12 01:02:01;;;;;;;6.07;3.87;;;;;;;9.27;51.63;102008.75;143734;579;48020;-72
2021/04/12 01:05:03;;;;;;;7.15;3.70;;;;;;;9.22;52.43;102008.75;143734;591;47010;-72
2021/04/12 01:08:11;;;;;;;7.12;3.53;;;;;;;9.22;52.13;102007.91;143737;654;46010;-73
2021/04/12 01:11:19;;;;;;;5.30;3.57;;;;;;;9.18;51.49;102014.88;143739;599;48008;-73
2021/04/12 01:14:34;;;;;;;4.55;3.10;;;;;;;9.18;51.13;102014.00;143737;589;46010;-73
2021/04/12 01:17:16;;;;;;;9.30;3.45;;;;;;;9.15;52.02;102009.66;143739;621;46010;-72
2021/04/12 01:20:20;;;;;;;7.00;3.40;;;;;;;9.15;51.30;102014.88;143734;607;46019;-72
2021/04/12 01:23:27;;;;;;;7.35;3.80;;;;;;;9.14;51.26;102013.13;143738;658;48008;-72
2021/04/12 01:27:00;;;;;;;5.80;3.62;;;;;;;9.12;50.62;102015.75;143735;571;48022;-73
2021/04/12 01:30:33;;;;;;;6.00;3.45;;;;;;;9.10;51.54;102011.41;143736;596;46018;-75
2021/04/12 01:33:36;;;;;;;6.47;3.60;;;;;;;9.08;51.35;102010.53;143735;663;46008;-72
2021/04/12 01:36:44;;;;;;;5.60;3.60;;;;;;;9.05;51.33;102010.53;143741;604;46016;-72
2021/04/12 01:39:56;;;;;;;7.12;4.00;;;;;;;9.04;51.81;102006.19;143737;577;46020;-73
2021/04/12 01:42:46;;;;;;;7.62;3.95;;;;;;;9.01;51.93;102000.91;143740;576;46018;-73
2021/04/12 01:45:54;;;;;;;6.12;4.72;;;;;;;8.98;51.90;102000.06;143737;665;46010;-72
2021/04/12 01:49:04;;;;;;;4.93;3.70;;;;;;;8.96;51.24;102000.94;143739;610;46020;-73
2021/04/12 01:52:21;;;;;;;7.32;3.30;;;;;;;8.94;50.95;102000.94;143737;577;46010;-73
2021/04/12 01:55:38;;;;;;;5.72;3.30;;;;;;;8.91;51.67;102000.06;143738;561;47010;-73
2021/04/12 01:58:36;;;;;;;7.03;3.80;;;;;;;8.89;51.70;101996.56;143740;598;46010;-72
2021/04/12 02:01:42;;;;;;;8.73;4.35;;;;;;;8.89;51.67;101991.34;143740;572;47008;-72
2021/04/12 02:04:57;;;;;;;3.97;2.92;;;;;;;8.88;51.96;101995.69;143739;575;46011;-72
2021/04/12 02:07:48;;;;;;;4.60;3.70;;;;;;;8.87;52.30;101999.19;143737;571;46018;-72
2021/04/12 02:11:09;;;;;;;8.07;3.78;;;;;;;8.85;52.59;101995.69;143740;684;46017;-73
2021/04/12 02:14:17;;;;;;;5.75;3.87;;;;;;;8.83;52.13;101986.09;143738;585;48008;-73
2021/04/12 02:17:32;;;;;;;5.97;4.00;;;;;;;8.81;52.35;101992.19;143738;668;47010;-72
2021/04/12 02:20:20;;;;;;;5.18;3.50;;;;;;;8.78;52.89;101988.72;143739;599;46019;-72
2021/04/12 02:22:56;;;;;;;;;;;;;;;8.81;51.58;101988.72;143740;982;46008;-72
2021/04/12 02:25:39;;;;;;;6.62;3.47;;;;;;;8.75;53.72;101984.34;143748;583;48012;-72
2021/04/12 02:28:39;;;;;;;4.95;3.50;;;;;;;8.74;52.80;101985.22;143739;689;46014;-72
2021/04/12 02:31:47;;;;;;;6.37;3.40;;;;;;;8.72;52.66;101984.38;143740;579;46012;-72
2021/04/12 02:35:25;;;;;;;7.60;3.45;;;;;;;8.74;52.63;101979.13;143738;568;46018;-72
2021/04/12 02:38:22;;;;;;;5.60;3.50;;;;;;;8.73;53.58;101970.38;143739;564;46018;-72
2021/04/12 02:41:32;;;;;;;12.98;3.65;;;;;;;8.75;53.44;101981.72;143740;583;46019;-72
2021/04/12 02:44:24;;;;;;;8.73;3.58;;;;;;;8.74;54.19;101979.97;143737;574;46018;-72
2021/04/12 02:47:39;;;;;;;7.20;3.72;;;;;;;8.74;53.52;101976.50;143736;563;46012;-72
2021/04/12 02:50:33;;;;;;;7.35;3.60;;;;;;;8.73;53.08;101966.88;143738;622;46019;-72
2021/04/12 02:53:49;;;;;;;7.10;3.50;;;;;;;8.73;52.85;101970.38;143737;575;46012;-72
2021/04/12 02:56:31;;;;;;;5.97;3.87;;;;;;;8.71;54.23;101973.88;143738;615;47010;-72
2021/04/12 02:59:41;;;;;;;6.10;3.40;;;;;;;8.70;53.74;101967.75;143735;564;46033;-72
2021/04/12 03:02:44;;;;;;;5.18;3.50;;;;;;;8.69;53.64;101973.84;143738;567;48010;-72
2021/04/12 03:06:07;;;;;;;9.60;3.65;;;;;;;8.71;52.88;101979.13;143734;564;48021;-72
2021/04/12 03:09:10;;;;;;;8.45;3.50;;;;;;;8.71;53.67;101976.50;143738;600;47010;-72
2021/04/12 03:12:10;;;;;;;6.22;3.83;;;;;;;8.72;52.57;101967.75;143738;584;46008;-73
2021/04/12 03:14:53;;;;;;;8.15;4.12;;;;;;;8.72;54.50;101976.50;143737;574;49010;-74
2021/04/12 03:17:43;;;;;;;10.98;4.20;;;;;;;8.72;53.97;101971.28;143735;576;48020;-73
2021/04/12 03:20:46;;;;;;;7.72;3.67;;;;;;;8.75;53.40;101976.50;143739;568;47010;-73
2021/04/12 03:23:44;;;;;;;9.55;3.92;;;;;;;8.76;53.42;101972.13;143737;581;46012;-72
2021/04/12 03:27:00;;;;;;;8.38;4.10;;;;;;;8.77;52.75;101971.25;143738;576;47010;-72
2021/04/12 03:30:01;;;;;;;9.73;3.85;;;;;;;8.77;53.10;101974.72;143731;602;48020;-72
2021/04/12 03:32:56;;;;;;;10.30;4.30;;;;;;;8.78;52.79;101975.63;143740;569;46010;-72
2021/04/12 03:36:07;;;;;;;11.10;4.20;;;;;;;8.76;53.22;101980.88;143734;642;46019;-72
2021/04/12 03:39:10;;;;;;;8.95;4.00;;;;;;;8.77;52.49;101969.50;143740;563;46018;-72
2021/04/12 03:42:14;;;;;;;8.40;3.47;;;;;;;8.78;53.49;101968.63;143737;572;46023;-73
2021/04/12 03:45:26;;;;;;;10.02;4.10;;;;;;;8.80;52.82;101974.75;143738;639;46018;-72
2021/04/12 03:48:41;;;;;;;8.70;3.90;;;;;;;8.82;53.85;101982.59;143735;588;46024;-72
2021/04/12 03:52:04;;;;;;;7.55;3.22;;;;;;;8.81;53.54;101986.94;143737;568;48012;-72
2021/04/12 03:55:12;;;;;;;6.97;3.50;;;;;;;8.82;53.26;101998.31;143734;588;48022;-72
2021/04/12 03:58:14;;;;;;;8.63;3.90;;;;;;;8.81;53.99;102002.66;143739;580;47010;-73
2021/04/12 04:01:08;;;;;;;13.52;4.12;;;;;;;8.80;54.20;102010.53;143739;575;47014;-72
2021/04/12 04:04:02;;;;;;;18.58;7.85;;;;;;;8.76;55.17;102011.41;143739;605;46018;-72
2021/04/12 04:07:09;;;;;;;69.68;32.75;;;;;;;8.75;53.76;102007.91;143737;581;46020;-72
2021/04/12 04:10:31;;;;;;;271.23;127.38;;;;;;;8.75;54.19;102012.31;143738;635;46018;-72
2021/04/12 04:13:56;;;;;;;134.00;92.68;;;;;;;8.74;53.83;102007.94;143734;643;46012;-72
2021/04/12 04:16:53;;;;;;;36.47;23.27;;;;;;;8.69;55.22;101999.19;143739;646;46018;-73
2021/04/12 04:20:04;;;;;;;18.98;9.77;;;;;;;8.71;55.31;102007.94;143738;601;46012;-72
2021/04/12 04:23:02;;;;;;;11.90;6.90;;;;;;;8.67;56.64;102007.03;143739;723;46032;-72
2021/04/12 04:26:16;;;;;;;9.82;5.53;;;;;;;8.69;55.40;102009.66;143738;580;47012;-72
2021/04/12 04:29:31;;;;;;;22.80;11.82;;;;;;;8.70;55.57;102011.41;143738;571;46018;-72
2021/04/12 04:32:38;;;;;;;16.33;9.50;;;;;;;8.73;55.35;102011.41;143738;581;46012;-72
2021/04/12 04:35:47;;;;;;;11.18;6.12;;;;;;;8.62;55.98;101993.97;143738;571;47010;-72
2021/04/12 04:38:49;;;;;;;11.68;5.00;;;;;;;8.77;57.13;102018.41;143738;587;46012;-72
2021/04/12 04:41:59;;;;;;;8.85;4.40;;;;;;;8.80;56.27;102007.91;143739;587;46018;-72
2021/04/12 04:45:18;;;;;;;5.95;3.50;;;;;;;8.84;56.52;102008.78;143737;568;46020;-74
2021/04/12 04:48:28;;;;;;;6.30;4.80;;;;;;;8.88;55.50;102006.16;143738;568;46010;-72
2021/04/12 04:51:37;;;;;;;11.40;5.35;;;;;;;8.95;55.79;102007.94;143739;575;46014;-72
2021/04/12 04:54:40;;;;;;;11.12;5.45;;;;;;;9.00;55.93;102012.28;143738;571;46018;-73
2021/04/12 04:58:04;;;;;;;9.32;5.25;;;;;;;9.07;55.24;102022.75;143737;659;46012;-72
2021/04/12 05:01:15;;;;;;;11.93;5.55;;;;;;;9.12;55.07;102018.38;143739;563;46012;-72
2021/04/12 05:04:07;;;;;;;12.73;5.80;;;;;;;9.20;55.18;102015.75;143737;601;46015;-73
2021/04/12 05:07:17;;;;;;;12.37;5.55;;;;;;;9.27;55.38;102017.50;143740;590;46018;-72
2021/04/12 05:10:25;;;;;;;13.75;5.57;;;;;;;9.36;55.12;102018.34;143739;564;46012;-73
2021/04/12 05:13:35;;;;;;;13.98;5.85;;;;;;;9.44;55.49;102032.31;143739;568;46018;-72
2021/04/12 05:16:46;;;;;;;13.77;5.80;;;;;;;9.53;55.05;102023.53;143739;599;46014;-73
2021/04/12 05:19:42;;;;;;;12.80;7.10;;;;;;;9.59;55.69;102016.53;143738;586;46021;-73
2021/04/12 05:23:00;;;;;;;22.02;8.13;;;;;;;9.68;54.84;102023.50;143736;581;46022;-73
2021/04/12 05:26:27;;;;;;;14.70;8.27;;;;;;;9.75;54.82;102025.22;143736;597;46019;-73
2021/04/12 05:29:35;;;;;;;15.25;8.40;;;;;;;9.82;55.09;102023.47;143733;599;46018;-73
2021/04/12 05:32:20;;;;;;;19.75;8.30;;;;;;;9.88;55.35;102017.31;143737;627;49010;-73
2021/04/12 05:35:33;;;;;;;26.42;10.77;;;;;;;9.97;54.54;102019.91;143736;598;46023;-73
2021/04/12 05:38:51;;;;;;;81.03;26.42;;;;;;;10.05;54.64;102014.62;143737;562;46018;-73
2021/04/12 05:42:01;;;;;;;83.62;26.12;;;;;;;10.13;54.59;102008.44;143737;562;46012;-73
2021/04/12 05:45:04;;;;;;;71.50;22.87;;;;;;;10.20;54.13;102008.38;143738;590;46018;-73
2021/04/12 05:48:24;;;;;;;58.08;20.55;;;;;;;10.28;54.79;102014.50;143736;569;46034;-73
2021/04/12 05:51:18;;;;;;;46.75;17.50;;;;;;;10.35;54.30;102007.47;143737;655;46018;-73
2021/04/12 05:54:24;;;;;;;43.87;17.02;;;;;;;10.42;53.46;102003.94;143737;615;46018;-74
2021/04/12 05:57:20;;;;;;;49.35;17.73;;;;;;;10.49;53.76;102009.13;143739;663;46018;-73
2021/04/12 06:00:17;;;;;;;36.45;15.43;;;;;;;10.56;53.08;102002.06;143738;581;46012;-73
2021/04/12 06:03:33;;;;;;;27.48;10.38;;;;;;;10.64;52.67;102002.87;143735;571;47010;-74
2021/04/12 06:06:56;;;;;;;19.50;8.32;;;;;;;10.72;53.28;102004.59;143736;645;47012;-73
2021/04/12 06:10:04;;;;;;;22.62;7.12;;;;;;;10.80;53.64;101997.53;143739;600;46020;-73
2021/04/12 06:13:14;;;;;;;18.73;7.10;;;;;;;10.87;53.77;101998.31;143735;573;48023;-73
2021/04/12 06:16:01;;;;;;;19.02;6.55;;;;;;;10.93;53.35;102001.75;143738;630;46018;-73
2021/04/12 06:19:09;;;;;;;15.52;6.60;;;;;;;11.01;52.39;101997.31;143739;607;46016;-75
2021/04/12 06:22:24;;;;;;;16.08;5.62;;;;;;;11.09;53.06;101993.75;143739;571;46018;-73
2021/04/12 06:25:28;;;;;;;17.83;5.18;;;;;;;11.15;53.39;101986.69;143737;654;47020;-74
2021/04/12 06:28:44;;;;;;;21.30;5.97;;;;;;;11.22;52.94;101989.22;143735;562;47010;-73
2021/04/12 06:31:48;;;;;;;24.15;6.47;;;;;;;11.29;53.01;101999.69;143734;612;46012;-73
2021/04/12 06:35:15;;;;;;;20.27;6.45;;;;;;;11.37;53.96;101996.09;143739;615;48012;-73
2021/04/12 06:38:27;;;;;;;19.48;6.10;;;;;;;11.44;53.05;101988.12;143735;587;46020;-75
2021/04/12 06:41:30;;;;;;;19.37;6.60;;;;;;;11.52;53.58;101998.53;143738;593;46019;-73
2021/04/12 06:44:45;;;;;;;15.70;6.00;;;;;;;11.61;52.52;102003.69;143735;576;47012;-73
2021/04/12 06:48:15;;;;;;;11.57;5.22;;;;;;;11.71;51.67;102006.22;143740;617;48008;-70
2021/04/12 06:51:48;;;;;;;13.40;4.62;;;;;;;11.79;52.85;101997.34;143739;562;46020;-79
2021/04/12 06:54:56;;;;;;;12.13;5.00;;;;;;;11.87;53.70;101993.75;143739;591;47010;-73
2021/04/12 06:58:08;;;;;;;13.30;4.60;;;;;;;11.96;54.07;101997.16;143736;691;46018;-73
2021/04/12 07:01:14;;;;;;;8.18;4.20;;;;;;;12.04;53.33;101998.81;143741;601;46020;-73
2021/04/12 07:04:29;;;;;;;11.12;4.20;;;;;;;12.12;52.28;101986.41;143738;599;46012;-73
2021/04/12 07:07:24;;;;;;;9.02;4.22;;;;;;;12.18;53.82;101992.47;143738;568;46018;-80
2021/04/12 07:10:31;;;;;;;6.95;4.07;;;;;;;12.26;54.26;101991.47;143738;602;46019;-73
2021/04/12 07:13:29;;;;;;;12.00;5.12;;;;;;;12.31;55.55;101990.50;143740;621;48008;-73
2021/04/12 07:16:50;;;;;;;9.80;4.62;;;;;;;12.41;53.62;101982.47;143739;594;46026;-73
2021/04/12 07:20:11;;;;;;;10.15;4.05;;;;;;;12.48;53.95;101979.75;143738;579;46018;-73
2021/04/12 07:23:17;;;;;;;7.32;4.20;;;;;;;12.57;53.78;101978.72;143739;630;46016;-74
2021/04/12 07:26:27;;;;;;;6.87;3.70;;;;;;;12.64;53.84;101976.84;143740;581;48010;-72
2021/04/12 07:29:37;;;;;;;11.80;5.15;;;;;;;12.70;52.96;101979.41;143739;625;46012;-74
2021/04/12 07:32:43;;;;;;;15.88;4.50;;;;;;;12.77;55.68;101983.66;143739;576;47010;-74
2021/04/12 07:35:42;;;;;;;8.30;3.70;;;;;;;12.83;54.08;101966.88;143735;570;46034;-75
2021/04/12 07:38:57;;;;;;;7.62;4.25;;;;;;;12.87;52.78;101971.19;143741;639;47010;-74
2021/04/12 07:42:14;;;;;;;7.15;4.00;;;;;;;12.91;52.68;101961.47;143737;581;47021;-73
2021/04/12 07:45:36;;;;;;;5.68;3.33;;;;;;;12.96;52.52;101960.47;143734;576;48010;-73
2021/04/12 07:48:58;;;;;;;11.00;4.50;;;;;;;13.02;54.35;101955.09;143741;576;46012;-74
2021/04/12 07:52:18;;;;;;;9.85;4.50;;;;;;;13.09;54.03;101952.34;143740;623;48012;-73
2021/04/12 07:55:04;;;;;;;;;;;;;;;13.17;54.97;101953.06;143742;978;48023;-74
2021/04/12 07:58:08;;;;;;;11.32;4.60;;;;;;;13.25;53.24;101956.44;143748;571;46018;-71
2021/04/12 08:01:31;;;;;;;9.63;4.68;;;;;;;13.33;52.42;101957.16;143741;591;46010;-73
2021/04/12 08:04:34;;;;;;;5.68;3.67;;;;;;;13.41;52.96;101948.22;143741;581;48010;-74
2021/04/12 08:07:56;;;;;;;6.40;3.97;;;;;;;13.46;52.55;101941.97;143739;618;46010;-75
2021/04/12 08:11:12;;;;;;;9.40;4.30;;;;;;;13.56;53.38;101940.03;143741;582;47010;-75
2021/04/12 08:14:14;;;;;;;4.75;3.20;;;;;;;13.67;50.94;101945.94;143739;607;46012;-73
2021/04/12 08:17:18;;;;;;;6.60;3.47;;;;;;;13.71;51.00;101934.41;143741;575;46027;-74
2021/04/12 08:20:45;;;;;;;7.50;3.90;;;;;;;13.78;51.27;101939.53;143739;601;46012;-74
2021/04/12 08:23:48;;;;;;;7.32;3.60;;;;;;;13.86;50.46;101935.00;143740;582;46031;-73
2021/04/12 08:27:09;;;;;;;7.95;3.42;;;;;;;13.93;50.00;101927.78;143737;568;47012;-74
2021/04/12 08:30:34;;;;;;;4.93;3.30;;;;;;;13.97;51.16;101922.41;143739;601;49010;-73
2021/04/12 08:33:37;;;;;;;5.78;3.28;;;;;;;14.20;49.51;101936.81;143737;646;48021;-72
2021/04/12 08:36:46;;;;;;;5.97;3.40;;;;;;;14.34;48.91;101939.16;143740;582;46018;-75
2021/04/12 08:39:26;;;;;;;;;;;;;;;14.46;49.77;101937.97;143741;973;46013;-77
2021/04/12 08:42:28;;;;;;;6.80;3.50;;;;;;;14.61;48.71;101936.72;143749;756;47018;-69
2021/04/12 08:45:33;;;;;;;7.87;3.83;;;;;;;14.77;48.94;101931.94;143740;570;46013;-76
2021/04/12 08:48:46;;;;;;;5.82;3.80;;;;;;;14.93;48.08;101932.44;143740;603;47010;-76
2021/04/12 08:51:49;;;;;;;6.47;3.75;;;;;;;15.07;48.13;101920.53;143735;568;46018;-75
2021/04/12 08:54:43;;;;;;;7.43;3.50;;;;;;;15.19;45.49;101923.75;143741;584;48013;-76
2021/04/12 09:00:29;;;;;;;6.53;3.80;;;;;;;15.36;46.60;101924.16;143744;571;45018;-77
2021/04/12 09:03:41;;;;;;;7.30;3.70;;;;;;;15.46;46.35;101915.94;143740;581;46018;-78
2021/04/12 09:06:45;;;;;;;8.27;4.05;;;;;;;15.44;46.39;101893.94;143740;563;49010;-79
2021/04/12 09:09:50;;;;;;;7.00;3.90;;;;;;;15.64;46.75;101911.87;143736;623;48021;-76
2021/04/12 09:13:00;;;;;;;8.30;4.45;;;;;;;15.76;46.39;101903.56;143739;574;46018;-78
2021/04/12 09:16:07;;;;;;;7.57;4.18;;;;;;;15.88;46.58;101904.97;143738;593;46012;-76
2021/04/12 09:19:11;;;;;;;10.43;3.70;;;;;;;15.92;47.39;101900.47;143739;645;46020;-76
2021/04/12 09:22:25;;;;;;;6.55;3.15;;;;;;;15.96;47.08;101910.91;143740;577;46012;-75
2021/04/12 09:25:28;;;;;;;4.43;3.67;;;;;;;16.00;47.81;101901.94;143738;584;47012;-76
2021/04/12 09:28:31;;;;;;;8.35;4.00;;;;;;;16.11;47.81;101898.09;143735;597;46012;-75
2021/04/12 09:31:22;;;;;;;7.03;3.40;;;;;;;16.14;47.17;101903.28;143739;597;46018;-73
2021/04/12 09:34:38;;;;;;;8.38;3.85;;;;;;;16.18;47.89;101889.03;143738;606;46012;-71
2021/04/12 09:37:57;;;;;;;11.25;4.00;;;;;;;16.30;47.92;101891.25;143739;570;46010;-72
2021/04/12 09:41:03;;;;;;;11.00;3.60;;;;;;;16.39;47.65;101884.81;143733;603;47012;-74
2021/04/12 09:44:15;;;;;;;6.72;3.60;;;;;;;16.51;47.62;101883.50;143740;597;46018;-73
2021/04/12 09:47:28;;;;;;;14.52;4.57;;;;;;;16.66;48.00;101877.69;143734;590;48021;-72
2021/04/12 09:50:40;;;;;;;6.90;4.10;;;;;;;16.82;47.65;101869.19;143739;581;47010;-72
2021/04/12 09:53:51;;;;;;;12.98;5.20;;;;;;;16.97;47.69;101863.34;143740;651;46013;-72
2021/04/12 09:57:01;;;;;;;17.58;4.55;;;;;;;17.10;47.50;101847.84;143739;618;48012;-72
2021/04/12 10:00:34;;;;;;;12.25;4.80;;;;;;;17.25;46.73;101835.78;143740;572;46012;-72
2021/04/12 10:03:42;;;;;;;9.13;4.20;;;;;;;17.39;45.37;101838.75;143737;670;47010;-72
2021/04/12 10:06:57;;;;;;;9.73;4.55;;;;;;;17.51;44.83;101831.22;143736;562;47012;-72
2021/04/12 10:10:01;;;;;;;14.27;5.57;;;;;;;17.65;45.49;101823.59;143739;590;46019;-72
2021/04/12 10:13:04;;;;;;;14.13;5.87;;;;;;;17.74;45.20;101819.69;143734;576;47022;-72
2021/04/12 10:16:03;;;;;;;16.60;6.12;;;;;;;17.76;43.45;101810.75;143742;589;46010;-73
2021/04/12 10:19:04;;;;;;;15.88;5.20;;;;;;;17.80;43.58;101800.88;143742;562;46012;-72
2021/04/12 10:22:06;;;;;;;6.87;3.87;;;;;;;17.87;44.19;101807.66;143738;581;46018;-72
2021/04/12 10:24:51;;;;;;;10.07;3.47;;;;;;;17.80;44.56;101773.41;143737;968;48021;-74
2021/04/12 10:27:49;;;;;;;7.85;3.80;;;;;;;18.00;44.65;101789.44;143737;769;47012;-73
2021/04/12 10:30:45;;;;;;;5.82;3.25;;;;;;;18.05;43.08;101790.09;143733;584;46018;-72
2021/04/12 10:33:23;;;;;;;4.03;3.03;;;;;;;18.07;41.67;101792.69;143740;711;46018;-72
2021/04/12 10:35:59;;;;;;;;;;;;;;;18.13;42.77;101784.47;143738;981;48020;-72
2021/04/12 10:38:38;;;;;;;6.78;2.70;;;;;;;18.14;40.64;101783.53;143747;611;47010;-72
2021/04/12 10:41:53;;;;;;;6.10;2.80;;;;;;;18.20;40.92;101787.72;143741;589;47008;-72
2021/04/12 10:44:42;;;;;;;4.72;2.62;;;;;;;18.21;39.58;101784.16;143739;699;47006;-73
2021/04/12 10:47:49;;;;;;;5.60;2.80;;;;;;;18.24;42.25;101782.19;143738;592;46021;-72
2021/04/12 10:50:54;;;;;;;7.53;3.90;;;;;;;18.24;38.99;101782.19;143738;969;47010;-74
2021/04/12 10:54:10;;;;;;;5.75;3.60;;;;;;;18.31;40.58;101774.81;143736;585;46013;-73
2021/04/12 10:56:48;;;;;;;9.45;3.85;;;;;;;18.40;39.82;101774.44;143740;562;49010;-72
2021/04/12 10:59:39;;;;;;;;;;;;;;;18.46;38.88;101772.44;143740;982;48020;-73
2021/04/12 11:02:29;;;;;;;4.95;3.03;;;;;;;18.51;38.40;101771.28;143748;568;46924;-73
2021/04/12 11:05:17;;;;;;;4.77;3.27;;;;;;;18.59;38.81;101768.31;143736;576;47012;-73
2021/04/12 11:08:34;;;;;;;6.35;3.37;;;;;;;18.67;39.53;101771.47;143741;706;48010;-73
2021/04/12 11:11:11;;;;;;;9.82;3.80;;;;;;;18.79;40.34;101764.72;143737;937;48020;-74
2021/04/12 11:14:31;;;;;;;12.90;3.75;;;;;;;18.86;40.37;101754.66;143737;952;47010;-72
2021/04/12 11:17:31;;;;;;;7.68;3.40;;;;;;;18.99;39.18;101749.66;143736;979;46019;-73
2021/04/12 11:20:35;;;;;;;5.72;3.17;;;;;;;19.09;37.71;101743.81;143742;625;46016;-75
2021/04/12 11:23:19;;;;;;;8.88;2.62;;;;;;;19.21;36.16;101752.16;143734;703;48022;-74
2021/04/12 11:26:15;;;;;;;4.95;2.87;;;;;;;19.31;38.30;101750.78;143738;632;46018;-73
2021/04/12 11:29:22;;;;;;;5.55;2.87;;;;;;;19.43;36.35;101738.66;143740;596;46012;-76
2021/04/12 11:32:30;;;;;;;7.43;2.72;;;;;;;19.57;36.24;101740.66;143735;968;47018;-75
2021/04/12 11:35:20;;;;;;;4.80;2.80;;;;;;;19.66;35.27;101729.53;143737;584;46020;-74
2021/04/12 11:38:03;;;;;;;5.07;2.70;;;;;;;19.75;34.58;101718.44;143740;583;46012;-74
2021/04/12 11:40:36;;;;;;;6.40;2.70;;;;;;;19.83;34.38;101717.19;143740;598;46016;-73
2021/04/12 11:43:11;;;;;;;5.05;2.53;;;;;;;19.90;34.71;101719.47;143740;758;49012;-74
2021/04/12 11:46:08;;;;;;;6.47;2.90;;;;;;;19.99;35.47;101710.12;143735;595;47012;-74
2021/04/12 11:49:03;;;;;;;7.63;3.30;;;;;;;20.08;34.66;101711.44;143736;579;47012;-77
2021/04/12 11:52:03;;;;;;;4.07;2.37;;;;;;;20.18;35.78;101701.19;143740;590;46017;-75
2021/04/12 11:55:18;;;;;;;9.70;4.62;;;;;;;20.27;36.33;101693.56;143740;571;46018;-73
2021/04/12 11:58:15;;;;;;;5.10;3.33;;;;;;;20.37;33.65;101688.56;143737;581;46018;-73
2021/04/12 12:01:21;;;;;;;9.38;4.82;;;;;;;20.46;34.86;101687.22;143736;572;47011;-73
2021/04/12 12:04:24;;;;;;;10.20;4.97;;;;;;;20.54;34.80;101689.47;143739;691;46018;-72
2021/04/12 12:07:29;;;;;;;8.98;4.15;;;;;;;20.59;34.65;101682.94;143741;690;46012;-73
2021/04/12 12:10:12;;;;;;;11.95;5.00;;;;;;;20.67;34.82;101682.50;143737;693;46012;-73
2021/04/12 12:13:23;;;;;;;16.23;6.32;;;;;;;20.72;34.00;101677.81;143738;591;46018;-73
2021/04/12 12:16:26;;;;;;;8.88;4.93;;;;;;;20.82;36.10;101678.16;143735;752;47012;-73
2021/04/12 12:19:20;;;;;;;8.25;4.47;;;;;;;20.89;35.66;101665.34;143736;576;49010;-73
2021/04/12 12:22:08;;;;;;;8.48;4.15;;;;;;;20.96;33.95;101664.03;143737;568;46018;-73
2021/04/12 12:25:29;;;;;;;7.55;3.97;;;;;;;21.02;35.85;101663.66;143732;722;46018;-73
2021/04/12 12:28:14;;;;;;;6.80;4.35;;;;;;;21.02;34.53;101655.66;143735;577;46012;-73
2021/04/12 12:35:07;;;;;;;5.65;4.12;;;;;;;21.22;34.72;101638.50;143739;567;46012;-75
2021/04/12 12:38:10;;;;;;;8.55;4.32;;;;;;;21.38;34.78;101637.59;143735;568;46019;-74
2021/04/12 12:41:02;;;;;;;7.35;3.90;;;;;;;21.49;34.75;101619.13;143736;612;46018;-75
2021/04/12 12:43:36;;;;;;;6.32;4.10;;;;;;;21.57;33.08;101621.34;143732;568;50010;-74
2021/04/12 12:46:10;;;;;;;6.28;4.22;;;;;;;21.76;34.09;101621.97;143739;686;46012;-73
2021/04/12 12:48:48;;;;;;;7.75;4.35;;;;;;;21.92;33.65;101627.22;143738;589;46018;-74
2021/04/12 12:51:28;;;;;;;9.15;4.40;;;;;;;22.02;34.32;101619.53;143736;574;46017;-73
2021/04/12 12:54:06;;;;;;;7.03;3.92;;;;;;;22.11;32.56;101621.59;143738;633;47012;-76
2021/04/12 12:56:37;;;;;;;7.07;4.65;;;;;;;22.20;32.86;101616.63;143734;568;48020;-74
2021/04/12 12:59:21;;;;;;;8.52;4.55;;;;;;;22.26;32.59;101614.44;143736;568;47010;-73
2021/04/12 13:01:49;;;;;;;8.68;4.50;;;;;;;22.31;31.30;101603.47;143733;584;46012;-74
2021/04/12 13:04:20;;;;;;;7.35;4.20;;;;;;;;;;143738;579;47581;-73
2021/04/12 13:06:51;;;;;;;8.30;4.60;;;;;;;22.54;31.60;101595.78;143735;569;48020;-73
2021/04/12 13:09:31;;;;;;;7.47;4.15;;;;;;;22.72;31.01;101591.91;143736;565;47010;-73
2021/04/12 13:12:14;;;;;;;9.95;4.32;;;;;;;22.93;31.15;101586.94;143736;574;46016;-73
2021/04/12 13:14:48;;;;;;;6.68;4.40;;;;;;;23.15;30.26;101581.06;143741;584;46018;-73
2021/04/12 13:17:47;;;;;;;9.40;4.82;;;;;;;23.54;32.79;101574.88;143736;570;46010;-75
2021/04/12 13:20:33;;;;;;;8.70;4.43;;;;;;;24.03;29.83;101570.59;143736;590;48010;-73
2021/04/12 13:23:14;;;;;;;7.62;4.25;;;;;;;24.74;28.39;101571.72;143735;669;46012;-74
2021/04/12 13:25:44;;;;;;;7.65;4.00;;;;;;;25.51;26.25;101562.34;143738;573;47010;-74
2021/04/12 13:28:36;;;;;;;6.28;4.15;;;;;;;26.34;27.42;101565.63;143737;633;46911;-74
2021/04/12 13:31:21;;;;;;;6.57;4.12;;;;;;;27.10;24.99;101552.16;143735;581;47008;-76
2021/04/12 13:34:05;;;;;;;8.25;3.97;;;;;;;27.92;25.01;101547.81;143737;589;46012;-74
2021/04/12 13:36:37;;;;;;;8.02;4.00;;;;;;;28.49;22.73;101542.72;143738;597;48010;-76
2021/04/12 13:39:43;;;;;;;6.55;3.75;;;;;;;29.06;23.25;101538.47;143738;572;46010;-77
2021/04/12 13:42:18;;;;;;;8.07;4.18;;;;;;;29.31;21.40;101535.19;143738;621;46008;-78
2021/04/12 13:44:56;;;;;;;7.37;4.45;;;;;;;29.55;20.39;101533.84;143737;653;46010;-79
2021/04/12 13:47:50;;;;;;;6.32;3.80;;;;;;;29.81;20.82;101523.22;143742;569;46010;-80
2021/04/12 13:50:47;;;;;;;8.75;3.75;;;;;;;30.09;23.04;101525.94;143738;584;46010;-80
2021/04/12 13:53:22;;;;;;;5.22;3.58;;;;;;;29.86;20.66;101520.91;143733;567;46020;-79
2021/04/12 13:55:55;;;;;;;4.62;3.37;;;;;;;29.74;20.79;101522.06;143735;562;46012;-78
2021/04/12 13:58:31;;;;;;;5.32;3.30;;;;;;;29.46;21.13;101513.94;143737;668;46021;-78
2021/04/12 14:01:28;;;;;;;5.03;3.25;;;;;;;29.25;21.04;101516.00;143735;607;47019;-79
2021/04/12 14:04:20;;;;;;;6.82;3.42;;;;;;;28.86;21.51;101515.03;143735;583;46020;-78
2021/04/12 14:07:12;;;;;;;5.65;2.85;;;;;;;28.49;24.24;101510.31;143738;584;47008;-79
2021/04/12 14:10:36;;;;;;;5.53;3.65;;;;;;;28.02;23.62;101513.66;143739;604;46020;-78
2021/04/12 14:13:24;;;;;;;4.78;3.00;;;;;;;27.76;24.29;101507.00;143738;601;46010;-78